createdAt,value
2022-10-08T00:01:16.056Z,9.88
2022-10-08T00:03:45.272Z,9.80
2022-10-08T00:06:21.474Z,9.83
2022-10-08T00:08:59.585Z,9.78
2022-10-08T00:11:29.560Z,9.71
2022-10-08T00:13:56.575Z,9.73
2022-10-08T00:16:27.119Z,9.73
2022-10-08T00:18:57.534Z,9.74
2022-10-08T00:21:28.100Z,9.67
2022-10-08T00:23:54.917Z,9.65
2022-10-08T00:26:24.303Z,9.60
2022-10-08T00:28:52.957Z,9.55
2022-10-08T00:31:28.462Z,9.57
2022-10-08T00:33:57.818Z,9.57
2022-10-08T00:36:27.890Z,9.62
2022-10-08T00:38:56.247Z,9.57
2022-10-08T00:41:25.392Z,9.54
2022-10-08T00:43:55.046Z,9.49
2022-10-08T00:46:27.674Z,9.49
2022-10-08T00:49:15.178Z,9.48
2022-10-08T00:51:44.620Z,9.49
2022-10-08T00:54:13.171Z,9.41
2022-10-08T00:56:40.842Z,9.39
2022-10-08T00:59:09.383Z,9.40
2022-10-08T01:01:37.017Z,9.41
2022-10-08T01:04:07.172Z,9.39
2022-10-08T01:07:12.474Z,9.31
2022-10-08T01:09:45.561Z,9.36
2022-10-08T01:12:18.192Z,9.29
2022-10-08T01:15:23.531Z,9.32
2022-10-08T01:17:56.910Z,9.34
2022-10-08T01:20:52.736Z,9.35
2022-10-08T01:23:51.524Z,9.28
2022-10-08T01:26:37.121Z,9.31
2022-10-08T01:29:08.530Z,9.29
2022-10-08T01:31:46.151Z,9.30
2022-10-08T01:34:37.002Z,9.31
2022-10-08T01:37:05.759Z,9.28
2022-10-08T01:39:36.603Z,9.26
2022-10-08T01:42:05.520Z,9.24
2022-10-08T01:44:38.789Z,9.20
2022-10-08T01:47:09.074Z,9.22
2022-10-08T01:49:45.211Z,9.23
2022-10-08T01:52:19.006Z,9.22
2022-10-08T01:54:51.575Z,9.22
2022-10-08T01:57:18.228Z,9.20
2022-10-08T01:59:50.159Z,9.21
2022-10-08T02:02:23.853Z,9.16
2022-10-08T02:04:53.298Z,9.18
2022-10-08T02:07:23.893Z,9.18
2022-10-08T02:09:53.959Z,9.11
2022-10-08T02:12:23.134Z,9.11
2022-10-08T02:14:55.649Z,9.13
2022-10-08T02:17:50.054Z,9.10
2022-10-08T02:20:42.948Z,9.09
2022-10-08T02:23:19.062Z,9.07
2022-10-08T02:25:54.839Z,9.04
2022-10-08T02:28:28.208Z,9.01
2022-10-08T02:31:00.776Z,9.00
2022-10-08T02:33:36.078Z,8.96
2022-10-08T02:36:06.174Z,8.97
2022-10-08T02:38:40.541Z,8.95
2022-10-08T02:41:10.429Z,8.90
2022-10-08T02:43:45.114Z,8.84
2022-10-08T02:46:20.066Z,8.75
2022-10-08T02:49:11.617Z,8.72
2022-10-08T02:51:41.209Z,8.71
2022-10-08T02:54:08.940Z,8.60
2022-10-08T02:56:43.692Z,8.62
2022-10-08T02:59:11.217Z,8.64
2022-10-08T03:01:48.065Z,8.63
2022-10-08T03:04:19.753Z,8.61
2022-10-08T03:06:48.828Z,8.66
2022-10-08T03:09:17.459Z,8.73
2022-10-08T03:11:44.360Z,8.79
2022-10-08T03:14:14.455Z,8.79
2022-10-08T03:16:46.500Z,8.86
2022-10-08T03:19:15.588Z,8.85
2022-10-08T03:21:44.946Z,8.88
2022-10-08T03:24:14.540Z,8.93
2022-10-08T03:26:41.453Z,8.98
2022-10-08T03:29:09.123Z,9.02
2022-10-08T03:31:35.984Z,9.01
2022-10-08T03:34:02.577Z,9.04
2022-10-08T03:36:29.302Z,9.05
2022-10-08T03:38:56.076Z,9.11
2022-10-08T03:41:22.715Z,9.10
2022-10-08T03:43:49.257Z,9.13
2022-10-08T03:46:16.048Z,9.17
2022-10-08T03:48:43.082Z,9.18
2022-10-08T03:51:13.165Z,9.18
2022-10-08T03:53:41.855Z,9.27
2022-10-08T03:56:11.855Z,9.30
2022-10-08T03:58:39.015Z,9.35
2022-10-08T04:01:10.779Z,9.35
2022-10-08T04:03:37.355Z,9.34
2022-10-08T04:06:04.609Z,9.40
2022-10-08T04:08:31.279Z,9.38
2022-10-08T04:10:57.886Z,9.38
2022-10-08T04:13:24.479Z,9.44
2022-10-08T04:15:51.467Z,9.47
2022-10-08T04:18:18.143Z,9.51
2022-10-08T04:20:45.164Z,9.51
2022-10-08T04:23:11.748Z,9.51
2022-10-08T04:25:38.382Z,9.53
2022-10-08T04:28:05.849Z,9.50
2022-10-08T04:30:32.507Z,9.50
2022-10-08T04:32:59.243Z,9.48
2022-10-08T04:35:25.897Z,9.47
2022-10-08T04:37:52.512Z,9.55
2022-10-08T04:40:19.064Z,9.56
2022-10-08T04:42:50.900Z,9.56
2022-10-08T04:45:17.590Z,9.60
2022-10-08T04:47:44.223Z,9.65
2022-10-08T04:50:10.831Z,9.67
2022-10-08T04:52:37.394Z,9.78
2022-10-08T04:55:04.146Z,9.80
2022-10-08T04:57:31.569Z,9.83
2022-10-08T05:00:16.960Z,9.86
2022-10-08T05:02:45.685Z,9.90
2022-10-08T05:05:12.541Z,9.93
2022-10-08T05:07:39.126Z,9.95
2022-10-08T05:10:06.134Z,9.94
2022-10-08T05:12:32.682Z,9.94
2022-10-08T05:14:59.277Z,9.96
2022-10-08T05:17:25.969Z,9.94
2022-10-08T05:19:52.815Z,9.89
2022-10-08T05:22:19.429Z,9.89
2022-10-08T05:24:45.995Z,9.85
2022-10-08T05:27:12.596Z,9.85
2022-10-08T05:29:39.124Z,9.84
2022-10-08T05:32:05.685Z,9.89
2022-10-08T05:34:32.497Z,9.91
2022-10-08T05:36:59.078Z,9.95
2022-10-08T05:39:25.811Z,10.03
2022-10-08T05:41:53.268Z,10.04
2022-10-08T05:44:19.988Z,10.11
2022-10-08T05:46:46.620Z,10.21
2022-10-08T05:49:19.477Z,10.22
2022-10-08T05:51:46.675Z,10.28
2022-10-08T05:54:13.410Z,10.31
2022-10-08T05:56:39.988Z,10.36
2022-10-08T05:59:06.608Z,10.44
2022-10-08T06:01:34.113Z,10.49
2022-10-08T06:04:08.497Z,10.55
2022-10-08T06:06:40.541Z,10.62
2022-10-08T06:09:08.590Z,10.72
2022-10-08T06:11:37.048Z,10.81
2022-10-08T06:14:06.092Z,10.86
2022-10-08T06:16:33.767Z,10.95
2022-10-08T06:19:02.043Z,11.07
2022-10-08T06:21:29.857Z,11.20
2022-10-08T06:24:01.697Z,11.32
2022-10-08T06:26:35.643Z,11.48
2022-10-08T06:29:07.304Z,11.66
2022-10-08T06:31:36.976Z,11.83
2022-10-08T06:34:04.606Z,11.94
2022-10-08T06:36:32.441Z,12.07
2022-10-08T06:39:00.992Z,12.12
2022-10-08T06:41:34.771Z,12.30
2022-10-08T06:44:03.343Z,12.43
2022-10-08T06:46:31.372Z,12.61
2022-10-08T06:49:00.353Z,12.84
2022-10-08T06:51:27.677Z,13.04
2022-10-08T06:53:58.075Z,13.16
2022-10-08T06:56:27.035Z,13.21
2022-10-08T06:58:53.599Z,13.26
2022-10-08T07:01:31.852Z,13.24
2022-10-08T07:04:00.688Z,13.17
2022-10-08T07:06:27.647Z,13.11
2022-10-08T07:08:56.194Z,13.04
2022-10-08T07:11:23.941Z,12.94
2022-10-08T07:13:50.531Z,12.87
2022-10-08T07:16:21.271Z,12.84
2022-10-08T07:18:50.349Z,12.77
2022-10-08T07:21:18.308Z,12.76
2022-10-08T07:23:45.361Z,12.80
2022-10-08T07:26:23.128Z,12.86
2022-10-08T07:29:04.574Z,12.87
2022-10-08T07:31:34.789Z,12.88
2022-10-08T07:34:04.011Z,12.94
2022-10-08T07:36:31.310Z,12.98
2022-10-08T07:39:04.016Z,12.96
2022-10-08T07:41:31.734Z,13.01
2022-10-08T07:43:59.938Z,13.08
2022-10-08T07:46:28.833Z,13.11
2022-10-08T07:48:56.906Z,13.11
2022-10-08T07:51:23.462Z,13.13
2022-10-08T07:53:49.994Z,13.16
2022-10-08T07:56:18.337Z,13.21
2022-10-08T07:58:45.500Z,13.29
2022-10-08T08:01:14.790Z,13.32
2022-10-08T08:03:42.085Z,13.37
2022-10-08T08:06:17.506Z,13.45
2022-10-08T08:08:45.792Z,13.54
2022-10-08T08:11:17.152Z,13.61
2022-10-08T08:13:45.329Z,13.76
2022-10-08T08:16:13.772Z,13.84
2022-10-08T08:18:42.885Z,13.74
2022-10-08T08:21:15.164Z,13.83
2022-10-08T08:23:47.597Z,13.95
2022-10-08T08:26:25.980Z,14.11
2022-10-08T08:28:57.987Z,14.24
2022-10-08T08:31:27.705Z,14.40
2022-10-08T08:33:57.373Z,14.57
2022-10-08T08:36:26.826Z,14.84
2022-10-08T08:38:53.773Z,14.80
2022-10-08T08:41:32.800Z,14.92
2022-10-08T08:44:10.158Z,15.02
2022-10-08T08:46:41.055Z,15.17
2022-10-08T08:49:18.768Z,15.30
2022-10-08T08:51:45.768Z,15.51
2022-10-08T08:54:12.425Z,15.78
2022-10-08T08:56:39.337Z,16.03
2022-10-08T08:59:16.821Z,16.22
2022-10-08T09:01:48.563Z,16.39
2022-10-08T09:04:27.947Z,16.72
2022-10-08T09:06:56.887Z,16.74
2022-10-08T09:09:35.551Z,16.59
2022-10-08T09:12:18.618Z,16.46
2022-10-08T09:14:52.077Z,16.35
2022-10-08T09:17:21.165Z,16.37
2022-10-08T09:19:49.324Z,16.34
2022-10-08T09:22:23.220Z,16.46
2022-10-08T09:25:15.628Z,16.35
2022-10-08T09:27:46.667Z,16.54
2022-10-08T09:30:41.103Z,16.51
2022-10-08T09:33:07.956Z,16.36
2022-10-08T09:35:42.104Z,16.40
2022-10-08T09:38:18.907Z,16.34
2022-10-08T09:41:03.707Z,16.34
2022-10-08T09:43:31.933Z,16.34
2022-10-08T09:45:58.933Z,16.20
2022-10-08T09:48:26.710Z,16.50
2022-10-08T09:51:16.001Z,16.35
2022-10-08T09:53:46.121Z,16.12
2022-10-08T09:56:26.751Z,16.06
2022-10-08T09:59:01.817Z,16.09
2022-10-08T10:01:31.334Z,16.11
2022-10-08T10:04:01.151Z,16.13
2022-10-08T10:06:33.705Z,16.15
2022-10-08T10:09:29.062Z,16.20
2022-10-08T10:12:32.526Z,16.15
2022-10-08T10:15:04.964Z,16.25
2022-10-08T10:17:35.907Z,16.31
2022-10-08T10:20:23.924Z,16.34
2022-10-08T10:23:03.039Z,16.38
2022-10-08T10:25:46.115Z,16.43
2022-10-08T10:28:37.354Z,16.40
2022-10-08T10:31:11.414Z,16.43
2022-10-08T10:33:50.211Z,16.46
2022-10-08T10:36:18.895Z,16.43
2022-10-08T10:38:53.779Z,16.49
2022-10-08T10:41:48.029Z,16.53
2022-10-08T10:44:21.915Z,16.55
2022-10-08T10:46:52.728Z,16.46
2022-10-08T10:49:24.747Z,16.55
2022-10-08T10:52:00.184Z,16.43
2022-10-08T10:54:39.029Z,16.38
2022-10-08T10:57:12.443Z,16.42
2022-10-08T10:59:47.969Z,16.41
2022-10-08T11:02:44.941Z,16.39
2022-10-08T11:05:14.446Z,16.46
2022-10-08T11:08:02.848Z,16.37
2022-10-08T11:10:35.363Z,16.41
2022-10-08T11:13:10.849Z,16.49
2022-10-08T11:15:44.171Z,16.53
2022-10-08T11:18:17.919Z,16.57
2022-10-08T11:21:13.960Z,16.64
2022-10-08T11:24:11.386Z,16.72
2022-10-08T11:27:04.214Z,16.76
2022-10-08T11:29:45.564Z,16.72
2022-10-08T11:32:15.250Z,16.63
2022-10-08T11:35:23.636Z,16.57
2022-10-08T11:38:02.522Z,16.50
2022-10-08T11:40:40.297Z,16.42
2022-10-08T11:43:09.957Z,16.33
2022-10-08T11:45:42.630Z,16.24
2022-10-08T11:48:35.854Z,16.25
2022-10-08T11:51:20.404Z,16.19
2022-10-08T11:54:21.024Z,16.21
2022-10-08T11:57:11.171Z,16.22
2022-10-08T11:59:46.396Z,16.14
2022-10-08T12:02:37.996Z,16.00
2022-10-08T12:05:23.015Z,15.88
2022-10-08T12:07:53.182Z,15.81
2022-10-08T12:10:19.679Z,15.79
2022-10-08T12:12:49.170Z,15.77
2022-10-08T12:15:24.881Z,15.75
2022-10-08T12:18:25.799Z,15.80
2022-10-08T12:21:28.139Z,15.82
2022-10-08T12:23:54.713Z,15.85
2022-10-08T12:26:21.282Z,15.87
2022-10-08T12:28:50.777Z,15.84
2022-10-08T12:31:35.618Z,15.75
2022-10-08T12:34:13.799Z,15.76
2022-10-08T12:37:12.543Z,15.77
2022-10-08T12:39:44.922Z,15.79
2022-10-08T12:42:17.497Z,15.79
2022-10-08T12:45:02.699Z,15.80
2022-10-08T12:48:01.476Z,15.76
2022-10-08T12:50:50.270Z,15.65
2022-10-08T12:53:17.801Z,15.79
2022-10-08T12:55:52.346Z,15.73
2022-10-08T12:58:23.321Z,15.65
2022-10-08T13:00:53.480Z,15.65
2022-10-08T13:03:21.684Z,15.75
2022-10-08T13:05:49.417Z,15.76
2022-10-08T13:08:34.938Z,15.84
2022-10-08T13:11:10.433Z,15.76
2022-10-08T13:13:44.867Z,15.74
2022-10-08T13:16:23.482Z,15.64
2022-10-08T13:18:57.409Z,15.67
2022-10-08T13:21:29.788Z,15.51
2022-10-08T13:23:57.150Z,15.50
2022-10-08T13:26:37.105Z,15.35
2022-10-08T13:29:21.973Z,15.31
2022-10-08T13:32:11.639Z,15.15
2022-10-08T13:34:38.129Z,15.11
2022-10-08T13:37:14.962Z,14.95
2022-10-08T13:40:10.726Z,14.97
2022-10-08T13:42:42.686Z,14.94
2022-10-08T13:45:26.847Z,14.97
2022-10-08T13:47:53.969Z,14.98
2022-10-08T13:50:22.446Z,14.89
2022-10-08T13:52:53.821Z,14.76
2022-10-08T13:55:29.572Z,14.80
2022-10-08T13:57:58.431Z,14.73
2022-10-08T14:00:25.212Z,14.65
2022-10-08T14:02:52.356Z,14.63
2022-10-08T14:05:20.103Z,14.54
2022-10-08T14:07:51.159Z,14.57
2022-10-08T14:10:21.083Z,14.57
2022-10-08T14:12:47.950Z,14.52
2022-10-08T14:15:16.518Z,14.45
2022-10-08T14:17:43.139Z,14.33
2022-10-08T14:20:10.345Z,14.32
2022-10-08T14:22:39.768Z,14.16
2022-10-08T14:25:16.421Z,14.05
2022-10-08T14:27:42.946Z,13.89
2022-10-08T14:30:11.723Z,13.88
2022-10-08T14:32:38.603Z,13.93
2022-10-08T14:35:06.656Z,13.90
2022-10-08T14:37:34.175Z,13.97
2022-10-08T14:40:00.863Z,14.03
2022-10-08T14:42:27.465Z,14.02
2022-10-08T14:44:54.065Z,13.91
2022-10-08T14:47:20.776Z,13.95
2022-10-08T14:49:47.345Z,14.00
2022-10-08T14:52:13.915Z,14.04
2022-10-08T14:54:40.484Z,14.04
2022-10-08T14:57:07.136Z,14.03
2022-10-08T14:59:39.045Z,14.06
2022-10-08T15:02:06.963Z,14.01
2022-10-08T15:04:33.514Z,13.95
2022-10-08T15:07:00.117Z,13.98
2022-10-08T15:09:28.281Z,13.84
2022-10-08T15:11:54.816Z,13.76
2022-10-08T15:14:21.342Z,13.71
2022-10-08T15:16:47.878Z,13.66
2022-10-08T15:19:14.506Z,13.58
2022-10-08T15:21:42.043Z,13.57
2022-10-08T15:24:08.804Z,13.54
2022-10-08T15:26:35.347Z,13.49
2022-10-08T15:29:02.084Z,13.43
2022-10-08T15:31:29.406Z,13.37
2022-10-08T15:33:57.455Z,13.20
2022-10-08T15:36:28.473Z,13.14
2022-10-08T15:38:59.409Z,13.17
2022-10-08T15:41:27.262Z,13.19
2022-10-08T15:43:54.395Z,13.14
2022-10-08T15:46:22.655Z,13.05
2022-10-08T15:48:57.024Z,13.01
2022-10-08T15:51:24.177Z,13.00
2022-10-08T15:53:51.617Z,12.99
2022-10-08T15:56:18.172Z,12.94
2022-10-08T15:58:52.160Z,12.96
2022-10-08T16:01:22.161Z,12.88
2022-10-08T16:03:50.976Z,12.82
2022-10-08T16:06:25.883Z,12.74
2022-10-08T16:08:53.008Z,12.66
2022-10-08T16:11:22.427Z,12.61
2022-10-08T16:13:51.699Z,12.60
2022-10-08T16:16:19.151Z,12.60
2022-10-08T16:18:47.572Z,12.52
2022-10-08T16:21:14.281Z,12.55
2022-10-08T16:23:40.871Z,12.42
2022-10-08T16:26:10.618Z,12.39
2022-10-08T16:28:39.503Z,12.50
2022-10-08T16:31:08.265Z,12.47
2022-10-08T16:33:35.090Z,12.50
2022-10-08T16:36:05.097Z,12.37
2022-10-08T16:38:33.580Z,12.46
2022-10-08T16:41:11.609Z,12.44
2022-10-08T16:43:38.886Z,12.36
2022-10-08T16:46:05.698Z,12.33
2022-10-08T16:48:32.314Z,12.31
2022-10-08T16:51:02.401Z,12.22
2022-10-08T16:53:28.997Z,12.15
2022-10-08T16:55:55.527Z,12.19
2022-10-08T16:58:22.104Z,12.20
2022-10-08T17:00:48.733Z,12.19
2022-10-08T17:03:15.362Z,12.24
2022-10-08T17:05:42.098Z,12.29
2022-10-08T17:08:09.101Z,12.35
2022-10-08T17:10:35.657Z,12.25
2022-10-08T17:13:02.202Z,12.15
2022-10-08T17:15:29.121Z,12.14
2022-10-08T17:17:55.815Z,12.20
2022-10-08T17:20:22.645Z,12.09
2022-10-08T17:22:51.053Z,12.12
2022-10-08T17:25:17.710Z,12.08
2022-10-08T17:27:44.223Z,12.08
2022-10-08T17:30:12.298Z,11.98
2022-10-08T17:32:38.837Z,11.95
2022-10-08T17:35:06.220Z,12.07
2022-10-08T17:37:32.810Z,12.12
2022-10-08T17:39:59.361Z,12.10
2022-10-08T17:42:25.892Z,12.07
2022-10-08T17:44:52.484Z,12.03
2022-10-08T17:47:24.574Z,12.05
2022-10-08T17:49:53.587Z,12.00
2022-10-08T17:52:20.494Z,11.96
2022-10-08T17:54:47.109Z,11.86
2022-10-08T17:57:13.869Z,11.91
2022-10-08T17:59:40.491Z,11.85
2022-10-08T18:02:08.693Z,11.90
2022-10-08T18:04:35.347Z,11.88
2022-10-08T18:07:03.665Z,11.86
2022-10-08T18:09:30.442Z,11.88
2022-10-08T18:11:56.968Z,11.95
2022-10-08T18:14:23.539Z,11.83
2022-10-08T18:16:51.264Z,11.77
2022-10-08T18:19:18.129Z,11.71
2022-10-08T18:21:45.110Z,11.64
2022-10-08T18:24:11.717Z,11.65
2022-10-08T18:26:38.403Z,11.70
2022-10-08T18:29:11.599Z,11.61
2022-10-08T18:31:40.875Z,11.63
2022-10-08T18:34:12.312Z,11.63
2022-10-08T18:36:39.328Z,11.58
2022-10-08T18:39:13.496Z,11.65
2022-10-08T18:41:42.710Z,11.61
2022-10-08T18:44:12.763Z,11.60
2022-10-08T18:46:40.502Z,11.47
2022-10-08T18:49:07.306Z,11.42
2022-10-08T18:51:34.607Z,11.27
2022-10-08T18:54:04.192Z,11.41
2022-10-08T18:56:35.897Z,11.38
2022-10-08T18:59:05.824Z,11.32
2022-10-08T19:01:38.514Z,11.26
2022-10-08T19:04:08.928Z,11.25
2022-10-08T19:06:37.802Z,11.19
2022-10-08T19:09:05.537Z,11.11
2022-10-08T19:11:43.506Z,11.12
2022-10-08T19:14:14.526Z,11.16
2022-10-08T19:16:41.650Z,11.20
2022-10-08T19:19:12.639Z,11.26
2022-10-08T19:21:39.271Z,11.30
2022-10-08T19:24:12.701Z,11.35
2022-10-08T19:26:39.307Z,11.37
2022-10-08T19:29:05.878Z,11.42
2022-10-08T19:31:35.149Z,11.43
2022-10-08T19:34:05.274Z,11.42
2022-10-08T19:36:35.031Z,11.43
2022-10-08T19:39:07.231Z,11.44
2022-10-08T19:41:33.903Z,11.47
2022-10-08T19:44:04.103Z,11.46
2022-10-08T19:46:31.466Z,11.42
2022-10-08T19:49:00.803Z,11.42
2022-10-08T19:51:29.629Z,11.44
2022-10-08T19:53:57.266Z,11.44
2022-10-08T19:56:24.068Z,11.43
2022-10-08T19:58:53.581Z,11.44
2022-10-08T20:01:23.263Z,11.44
2022-10-08T20:03:57.034Z,11.43
2022-10-08T20:06:26.699Z,11.41
2022-10-08T20:08:54.863Z,11.38
2022-10-08T20:11:22.192Z,11.34
2022-10-08T20:13:50.291Z,11.35
2022-10-08T20:16:25.764Z,11.35
2022-10-08T20:18:59.420Z,11.34
2022-10-08T20:21:27.892Z,11.34
2022-10-08T20:23:54.869Z,11.39
2022-10-08T20:26:24.358Z,11.41
2022-10-08T20:28:53.974Z,11.53
2022-10-08T20:31:30.347Z,11.49
2022-10-08T20:34:03.998Z,11.47
2022-10-08T20:36:31.303Z,11.46
2022-10-08T20:38:58.579Z,11.43
2022-10-08T20:41:30.469Z,11.42
2022-10-08T20:44:02.968Z,11.42
2022-10-08T20:46:31.195Z,11.40
2022-10-08T20:48:57.965Z,11.32
2022-10-08T20:51:27.024Z,11.32
2022-10-08T20:53:59.826Z,11.39
2022-10-08T20:56:30.233Z,11.31
2022-10-08T20:58:57.650Z,11.16
2022-10-08T21:01:29.317Z,11.09
2022-10-08T21:04:00.465Z,11.04
2022-10-08T21:06:29.915Z,11.03
2022-10-08T21:08:58.820Z,10.95
2022-10-08T21:11:28.442Z,10.84
2022-10-08T21:13:55.353Z,10.77
2022-10-08T21:16:25.019Z,10.66
2022-10-08T21:18:53.664Z,10.59
2022-10-08T21:21:20.321Z,10.53
2022-10-08T21:23:48.953Z,10.47
2022-10-08T21:26:20.157Z,10.44
2022-10-08T21:28:48.769Z,10.20
2022-10-08T21:31:17.426Z,10.12
2022-10-08T21:33:46.222Z,10.05
2022-10-08T21:36:15.655Z,10.11
2022-10-08T21:38:42.861Z,10.18
2022-10-08T21:41:12.413Z,10.09
2022-10-08T21:43:39.639Z,10.06
2022-10-08T21:46:06.284Z,10.10
2022-10-08T21:48:32.993Z,10.10
2022-10-08T21:51:01.044Z,10.12
2022-10-08T21:53:28.992Z,10.21
2022-10-08T21:55:57.810Z,10.18
2022-10-08T21:58:26.334Z,10.18
2022-10-08T22:00:53.537Z,10.17
2022-10-08T22:03:21.475Z,10.17
2022-10-08T22:05:55.443Z,10.19
2022-10-08T22:08:23.732Z,10.14
2022-10-08T22:10:50.463Z,10.13
2022-10-08T22:13:17.643Z,10.16
2022-10-08T22:15:55.320Z,10.12
2022-10-08T22:18:23.129Z,10.09
2022-10-08T22:20:50.155Z,9.98
2022-10-08T22:23:16.839Z,10.01
2022-10-08T22:25:52.115Z,10.04
2022-10-08T22:28:18.693Z,10.11
2022-10-08T22:30:45.244Z,10.08
2022-10-08T22:33:11.939Z,9.99
2022-10-08T22:35:39.781Z,9.94
2022-10-08T22:38:06.315Z,9.89
2022-10-08T22:40:32.979Z,9.90
2022-10-08T22:42:59.551Z,9.91
2022-10-08T22:45:26.236Z,9.96
2022-10-08T22:47:52.875Z,9.96
2022-10-08T22:50:19.763Z,10.00
2022-10-08T22:52:48.647Z,9.94
2022-10-08T22:55:20.928Z,9.84
2022-10-08T22:57:47.535Z,9.80
2022-10-08T23:00:14.788Z,9.80
2022-10-08T23:02:41.830Z,9.81
2022-10-08T23:05:08.524Z,9.72
2022-10-08T23:07:35.055Z,9.64
2022-10-08T23:10:01.650Z,9.66
2022-10-08T23:12:28.215Z,9.61
2022-10-08T23:14:54.834Z,9.59
2022-10-08T23:17:21.377Z,9.57
2022-10-08T23:19:47.920Z,9.61
2022-10-08T23:22:14.429Z,9.58
2022-10-08T23:24:40.967Z,9.54
2022-10-08T23:27:09.655Z,9.58
2022-10-08T23:29:36.471Z,9.56
2022-10-08T23:32:03.136Z,9.56
2022-10-08T23:34:29.800Z,9.59
2022-10-08T23:36:56.356Z,9.57
2022-10-08T23:39:22.976Z,9.54
2022-10-08T23:41:49.617Z,9.59
2022-10-08T23:44:16.224Z,9.54
2022-10-08T23:46:42.797Z,9.48
2022-10-08T23:49:09.377Z,9.49
2022-10-08T23:51:36.033Z,9.47
2022-10-08T23:54:02.662Z,9.36
2022-10-08T23:56:29.508Z,9.34
2022-10-08T23:58:56.346Z,9.37
